Time;durP1;ratioP1;P1;durP2;ratioP2;P2;SDS_P1;SDS_P2;PMS_P1;PMS_P2;Temp;Humidity;BMP_temperature;BMP_pressure;BME280_temperature;BME280_humidity;BME280_pressure;Samples;Min_cycle;Max_cycle;Signal;HPM_P1;HPM_P2
2024/02/05 00:01:35;;;;;;;1.05;0.43;;;;;;;7.08;74.14;99392.53;4980610;28;103245;-83
2024/02/05 00:04:04;;;;;;;0.85;0.40;;;;;;;7.08;74.75;99383.78;4974177;28;103295;-84
2024/02/05 00:06:32;;;;;;;0.32;0.32;;;;;;;7.11;74.12;99387.00;4982382;28;102535;-85
2024/02/05 00:09:05;;;;;;;0.80;0.40;;;;;;;7.10;74.09;99387.97;4985504;28;103730;-84
2024/02/05 00:11:33;;;;;;;0.32;0.32;;;;;;;7.12;73.57;99398.38;4980733;28;103948;-84
2024/02/05 00:14:02;;;;;;;0.75;0.25;;;;;;;7.11;74.10;99387.00;4989076;28;102963;-84
2024/02/05 00:16:30;;;;;;;0.20;0.20;;;;;;;7.16;73.83;99389.25;4984704;28;102972;-83
2024/02/05 00:19:01;;;;;;;1.00;0.40;;;;;;;7.07;73.92;99385.56;4987814;28;103060;-84
2024/02/05 00:21:31;;;;;;;0.40;0.38;;;;;;;7.06;74.06;99376.03;4979682;28;103951;-83
2024/02/05 00:24:01;;;;;;;0.15;0.15;;;;;;;7.01;73.90;99375.56;4987009;28;103826;-82
2024/02/05 00:26:28;;;;;;;0.63;0.28;;;;;;;7.06;73.54;99376.03;4982043;28;102838;-83
2024/02/05 00:28:56;;;;;;;0.32;0.30;;;;;;;6.98;74.43;99381.06;4981402;28;102804;-82
2024/02/05 00:31:24;;;;;;;0.63;0.35;;;;;;;7.01;74.19;99386.09;4978278;28;103337;-83
2024/02/05 00:33:52;;;;;;;0.35;0.30;;;;;;;7.00;73.87;99379.16;4985910;28;103116;-81
2024/02/05 00:36:20;;;;;;;1.02;0.60;;;;;;;6.98;73.58;99386.34;4983844;28;102470;-84
2024/02/05 00:38:48;;;;;;;0.55;0.28;;;;;;;7.03;73.35;99373.63;4978868;28;103215;-84
2024/02/05 00:41:17;;;;;;;0.30;0.30;;;;;;;7.01;74.10;99370.31;4980211;28;104025;-83
2024/02/05 00:43:45;;;;;;;0.38;0.38;;;;;;;6.96;73.67;99378.56;4976821;28;103161;-83
2024/02/05 00:46:21;;;;;;;0.40;0.30;;;;;;;6.89;74.10;99387.13;4981207;28;102513;-82
2024/02/05 00:48:49;;;;;;;0.40;0.35;;;;;;;6.90;74.27;99383.53;4984228;28;103857;-83
2024/02/05 00:51:17;;;;;;;0.30;0.30;;;;;;;6.89;73.94;99403.78;4953659;28;103305;-84
2024/02/05 00:53:45;;;;;;;0.55;0.22;;;;;;;6.95;73.94;99407.69;4979058;28;103152;-83
2024/02/05 00:56:13;;;;;;;0.30;0.30;;;;;;;7.01;74.14;99412.44;4979290;28;102548;-81
2024/02/05 00:58:43;;;;;;;0.77;0.40;;;;;;;6.99;74.09;99417.00;4988416;28;103031;-83
2024/02/05 01:01:11;;;;;;;0.63;0.40;;;;;;;7.03;74.07;99418.41;4977502;28;103158;-82
2024/02/05 01:03:39;;;;;;;0.20;0.20;;;;;;;7.02;74.27;99419.41;4979219;28;103122;-83
2024/02/05 01:06:10;;;;;;;1.42;0.50;;;;;;;7.03;73.66;99420.22;4973384;28;102582;-84
2024/02/05 01:08:38;;;;;;;0.40;0.40;;;;;;;7.00;73.48;99429.22;4983532;28;105136;-84
2024/02/05 01:11:07;;;;;;;1.23;0.50;;;;;;;6.96;73.39;99419.91;4981485;28;104115;-81
2024/02/05 01:13:34;;;;;;;3.75;0.60;;;;;;;6.99;73.23;99417.00;4973131;28;103406;-83
2024/02/05 01:16:04;;;;;;;0.47;0.40;;;;;;;7.00;73.95;99431.84;4977513;28;103859;-81
2024/02/05 01:18:33;;;;;;;0.80;0.40;;;;;;;7.01;74.00;99428.25;4980419;28;103720;-81
2024/02/05 01:21:01;;;;;;;1.95;0.50;;;;;;;6.97;73.50;99432.09;4980468;28;104371;-82
2024/02/05 01:23:31;;;;;;;1.27;0.70;;;;;;;6.96;73.67;99435.69;4986119;28;103323;-83
2024/02/05 01:26:01;;;;;;;1.40;0.47;;;;;;;6.91;73.76;99424.69;4976115;28;103174;-83
2024/02/05 01:28:28;;;;;;;3.47;0.60;;;;;;;6.94;73.61;99427.06;4977933;28;102589;-79
2024/02/05 01:30:57;;;;;;;1.10;0.70;;;;;;;6.88;74.20;99438.13;4978177;28;103353;-82
2024/02/05 01:33:26;;;;;;;0.90;0.60;;;;;;;6.88;74.33;99432.88;4982528;28;102555;-83
2024/02/05 01:35:54;;;;;;;2.63;0.70;;;;;;;6.86;73.79;99432.16;4973712;28;102511;-84
2024/02/05 01:38:22;;;;;;;1.38;0.52;;;;;;;6.88;74.39;99443.41;4974213;28;104311;-84
2024/02/05 01:40:50;;;;;;;1.40;0.43;;;;;;;6.92;73.56;99450.09;4980715;28;103420;-83
2024/02/05 01:43:18;;;;;;;1.42;0.55;;;;;;;6.82;74.41;99438.63;4980677;28;103358;-83
2024/02/05 01:45:46;;;;;;;1.35;0.70;;;;;;;6.84;73.96;99448.06;4977813;28;102873;-83
2024/02/05 01:48:19;;;;;;;2.45;0.55;;;;;;;6.85;74.25;99464.69;4982953;28;102545;-82
2024/02/05 01:50:49;;;;;;;1.60;0.80;;;;;;;6.83;74.50;99461.38;4985977;28;103182;-81
2024/02/05 01:53:18;;;;;;;0.57;0.55;;;;;;;6.82;74.29;99451.78;4983381;28;103309;-83
2024/02/05 01:55:48;;;;;;;1.38;0.60;;;;;;;6.80;74.02;99447.47;4979901;28;102888;-82
2024/02/05 01:58:16;;;;;;;3.75;0.65;;;;;;;6.71;74.52;99452.69;4982012;28;104029;-84
2024/02/05 02:00:45;;;;;;;2.78;0.80;;;;;;;6.68;74.21;99445.88;4978660;28;103163;-83
2024/02/05 02:03:15;;;;;;;1.02;0.73;;;;;;;6.70;74.57;99451.81;4977504;28;103255;-84
2024/02/05 02:05:43;;;;;;;1.65;0.60;;;;;;;6.70;74.79;99445.72;4976589;28;102814;-82
2024/02/05 02:08:15;;;;;;;1.80;0.57;;;;;;;6.76;74.11;99440.81;4983069;28;102781;-84
2024/02/05 02:10:45;;;;;;;0.95;0.50;;;;;;;6.65;74.06;99443.47;4975408;28;103246;-84
2024/02/05 02:13:13;;;;;;;0.90;0.50;;;;;;;6.71;74.36;99442.97;4975637;28;102862;-81
2024/02/05 02:15:49;;;;;;;3.15;0.70;;;;;;;6.65;74.11;99443.47;4982750;28;102899;-81
2024/02/05 02:18:22;;;;;;;1.40;0.50;;;;;;;6.63;74.65;99427.78;4981458;28;102596;-84
2024/02/05 02:20:52;;;;;;;3.67;0.57;;;;;;;6.67;74.37;99427.53;4986734;28;104572;-80
2024/02/05 02:23:26;;;;;;;4.97;0.70;;;;;;;6.67;73.96;99433.66;4972242;28;103619;-83
2024/02/05 02:25:54;;;;;;;1.48;0.60;;;;;;;6.71;73.67;99437.72;4975753;28;102568;-83
2024/02/05 02:28:22;;;;;;;4.40;0.70;;;;;;;6.70;73.55;99425.50;4984569;28;104201;-84
2024/02/05 02:30:51;;;;;;;2.22;0.60;;;;;;;6.76;73.74;99435.53;4978294;28;103310;-83
2024/02/05 02:33:25;;;;;;;0.40;0.40;;;;;;;6.75;73.89;99431.22;4979346;28;103136;-83
2024/02/05 02:35:58;;;;;;;1.05;0.50;;;;;;;6.79;73.50;99430.00;4975800;28;103613;-84
2024/02/05 02:38:33;;;;;;;3.20;0.57;;;;;;;6.82;73.05;99433.38;4973382;28;103710;-83
2024/02/05 02:41:05;;;;;;;0.80;0.47;;;;;;;6.87;72.80;99434.66;4973362;28;104651;-83
2024/02/05 02:43:39;;;;;;;1.05;0.60;;;;;;;6.84;73.04;99429.63;4972328;28;103206;-84
2024/02/05 02:46:08;;;;;;;3.67;0.50;;;;;;;6.88;72.79;99440.78;4970245;28;103070;-82
2024/02/05 02:48:36;;;;;;;2.92;0.40;;;;;;;6.97;71.97;99448.72;4971279;28;102995;-82
2024/02/05 02:51:07;;;;;;;3.17;0.57;;;;;;;6.98;72.20;99452.19;4973231;28;103180;-84
2024/02/05 02:53:36;;;;;;;2.15;0.60;;;;;;;7.05;72.11;99458.63;4977184;28;104313;-83
2024/02/05 02:56:05;;;;;;;1.58;0.55;;;;;;;6.99;71.95;99445.16;4977978;28;103052;-81
2024/02/05 02:58:33;;;;;;;0.68;0.40;;;;;;;7.02;71.80;99456.25;4979091;28;104171;-84
2024/02/05 03:01:01;;;;;;;0.75;0.50;;;;;;;7.07;72.12;99448.78;4974255;28;103285;-81
2024/02/05 03:03:29;;;;;;;1.08;0.30;;;;;;;7.08;72.07;99439.09;4977307;28;103146;-84
2024/02/05 03:05:57;;;;;;;3.70;0.40;;;;;;;6.99;71.70;99438.06;4977320;28;102968;-82
2024/02/05 03:08:25;;;;;;;3.50;0.70;;;;;;;7.02;72.03;99437.84;4985261;28;102550;-84
2024/02/05 03:10:54;;;;;;;2.97;0.60;;;;;;;7.09;71.67;99438.16;4981448;28;103296;-84
2024/02/05 03:13:22;;;;;;;4.10;0.50;;;;;;;7.12;71.63;99446.63;4980657;28;103219;-83
2024/02/05 03:15:50;;;;;;;1.45;0.30;;;;;;;7.18;72.16;99447.06;4978024;28;103340;-83
2024/02/05 03:18:21;;;;;;;1.05;0.40;;;;;;;7.16;72.26;99454.28;4978019;28;103888;-82
2024/02/05 03:20:48;;;;;;;1.33;0.47;;;;;;;7.08;72.40;99449.66;4976103;28;103972;-83
2024/02/05 03:23:16;;;;;;;3.28;0.60;;;;;;;7.19;71.81;99446.97;4977504;28;103388;-83
2024/02/05 03:25:44;;;;;;;1.13;0.47;;;;;;;7.09;71.68;99446.06;4985746;28;103722;-83
2024/02/05 03:28:14;;;;;;;1.45;0.40;;;;;;;7.13;71.95;99443.03;4975011;28;102978;-84
2024/02/05 03:30:42;;;;;;;1.30;0.80;;;;;;;7.18;72.19;99452.34;4981522;28;104048;-84
2024/02/05 03:33:14;;;;;;;0.65;0.47;;;;;;;7.20;71.99;99460.97;4977215;28;103177;-84
2024/02/05 03:35:42;;;;;;;1.02;0.40;;;;;;;7.16;72.19;99441.09;4988616;28;102595;-83
2024/02/05 03:38:10;;;;;;;1.05;0.40;;;;;;;7.17;72.02;99453.31;4982940;28;103668;-79
2024/02/05 03:40:40;;;;;;;0.88;0.38;;;;;;;7.25;72.30;99456.97;4981329;28;104555;-82
2024/02/05 03:43:08;;;;;;;1.88;0.50;;;;;;;7.20;72.25;99459.16;4978849;28;103213;-84
2024/02/05 03:45:37;;;;;;;1.42;0.30;;;;;;;7.31;72.26;99466.19;4984283;28;102522;-84
2024/02/05 03:48:07;;;;;;;0.32;0.30;;;;;;;7.28;72.47;99469.06;4988450;28;103448;-83
2024/02/05 03:50:35;;;;;;;0.43;0.40;;;;;;;7.28;71.95;99474.31;4979808;28;103214;-84
2024/02/05 03:53:04;;;;;;;0.43;0.40;;;;;;;7.25;72.48;99472.78;4961464;28;103847;-84
2024/02/05 03:55:32;;;;;;;2.72;0.70;;;;;;;7.32;71.88;99470.47;4982443;28;102948;-84
2024/02/05 03:58:02;;;;;;;2.17;0.40;;;;;;;7.37;71.97;99470.91;4979355;28;102804;-84
2024/02/05 04:00:30;;;;;;;0.47;0.30;;;;;;;7.31;71.96;99476.72;4982765;28;104261;-84
2024/02/05 04:03:00;;;;;;;0.55;0.40;;;;;;;7.33;72.20;99463.41;4977261;28;103264;-83
2024/02/05 04:05:31;;;;;;;2.08;0.50;;;;;;;7.27;72.48;99462.97;4980607;28;103267;-85
2024/02/05 04:07:59;;;;;;;0.90;0.43;;;;;;;7.34;72.13;99465.09;4977128;28;102840;-83
2024/02/05 04:10:27;;;;;;;3.10;2.80;;;;;;;7.42;72.21;99468.72;4960829;28;104250;-84
2024/02/05 04:12:55;;;;;;;0.32;0.30;;;;;;;7.44;72.58;99458.06;4983663;28;103939;-84
2024/02/05 04:15:23;;;;;;;2.47;0.30;;;;;;;7.40;72.03;99475.94;4975995;28;102938;-83
2024/02/05 04:17:53;;;;;;;3.75;0.70;;;;;;;7.37;72.22;99481.47;4978415;28;103494;-83
2024/02/05 04:20:23;;;;;;;0.30;0.30;;;;;;;7.37;71.86;99475.38;4984648;28;104281;-85
2024/02/05 04:22:51;;;;;;;1.90;0.43;;;;;;;7.44;72.43;99465.97;4981461;28;102583;-84
2024/02/05 04:25:19;;;;;;;0.70;0.52;;;;;;;7.42;72.05;99468.72;5003790;28;103438;-83
2024/02/05 04:27:46;;;;;;;1.25;0.40;;;;;;;7.49;72.34;99471.69;4985546;28;103877;-84
2024/02/05 04:30:16;;;;;;;1.50;0.40;;;;;;;7.42;72.47;99467.91;4984922;28;103120;-83
2024/02/05 04:32:44;;;;;;;0.65;0.40;;;;;;;7.37;72.04;99470.91;4976265;28;103414;-84
2024/02/05 04:35:12;;;;;;;0.85;0.43;;;;;;;7.32;72.62;99480.19;4988398;28;104302;-86
2024/02/05 04:37:42;;;;;;;0.35;0.30;;;;;;;7.51;72.12;99472.41;4985726;28;104483;-86
2024/02/05 04:40:11;;;;;;;0.93;0.40;;;;;;;7.42;72.27;99468.72;4978444;28;103896;-83
2024/02/05 04:42:40;;;;;;;1.08;0.30;;;;;;;7.50;71.60;99469.91;4974976;28;103349;-85
2024/02/05 04:45:09;;;;;;;4.68;0.35;;;;;;;7.44;72.52;99476.50;4976715;28;102993;-81
2024/02/05 04:47:39;;;;;;;0.20;0.20;;;;;;;7.51;72.50;99474.22;4983691;28;102548;-84
2024/02/05 04:50:08;;;;;;;1.95;0.30;;;;;;;7.50;72.33;99480.44;4976555;28;102989;-83
2024/02/05 04:52:36;;;;;;;0.68;0.38;;;;;;;7.55;72.28;99478.25;4980331;28;103669;-83
2024/02/05 04:55:06;;;;;;;2.17;0.40;;;;;;;7.46;72.27;99469.31;4978598;28;103751;-84
2024/02/05 04:57:34;;;;;;;0.10;0.10;;;;;;;7.53;72.03;99472.28;4989658;28;102541;-84
2024/02/05 05:00:04;;;;;;;1.27;0.30;;;;;;;7.56;71.19;99469.38;4985066;28;103187;-83
2024/02/05 05:02:32;;;;;;;2.53;0.40;;;;;;;7.46;72.50;99474.59;4982511;28;103244;-84
2024/02/05 05:05:00;;;;;;;1.33;0.30;;;;;;;7.52;71.83;99483.78;4976884;28;102563;-84
2024/02/05 05:07:28;;;;;;;0.20;0.20;;;;;;;7.57;71.77;99485.06;4977838;28;102908;-84
2024/02/05 05:09:56;;;;;;;0.47;0.40;;;;;;;7.62;70.94;99490.81;4977608;28;104932;-81
2024/02/05 05:12:25;;;;;;;1.08;0.40;;;;;;;7.63;71.04;99496.91;4979486;28;103314;-83
2024/02/05 05:14:55;;;;;;;0.20;0.20;;;;;;;7.55;71.68;99499.34;4978422;28;103600;-84
2024/02/05 05:17:23;;;;;;;0.63;0.30;;;;;;;7.46;71.90;99499.13;4972784;28;103556;-83
2024/02/05 05:19:51;;;;;;;0.73;0.32;;;;;;;7.58;71.29;99488.53;4976921;28;103140;-84
2024/02/05 05:22:19;;;;;;;2.63;0.50;;;;;;;7.62;70.66;99489.94;4983555;28;103531;-84
2024/02/05 05:24:47;;;;;;;1.08;0.35;;;;;;;7.70;71.11;99491.94;4985254;28;102565;-84
2024/02/05 05:27:15;;;;;;;0.85;0.32;;;;;;;7.58;71.52;99492.00;4983719;28;104199;-82
2024/02/05 05:29:44;;;;;;;0.45;0.35;;;;;;;7.68;71.26;99489.44;4987935;28;104041;-84
2024/02/05 05:32:12;;;;;;;0.43;0.30;;;;;;;7.63;70.08;99496.91;4979101;28;103020;-83
2024/02/05 05:34:40;;;;;;;0.75;0.17;;;;;;;7.64;70.99;99498.56;4977354;28;102565;-83
2024/02/05 05:37:08;;;;;;;0.60;0.30;;;;;;;7.68;70.64;99488.63;4976387;28;104114;-83
2024/02/05 05:39:36;;;;;;;2.33;0.28;;;;;;;7.74;69.82;99491.56;4982185;28;103382;-82
2024/02/05 05:42:05;;;;;;;0.32;0.20;;;;;;;7.66;70.74;99488.72;4984003;28;103575;-82
2024/02/05 05:44:33;;;;;;;0.10;0.10;;;;;;;7.67;70.23;99489.56;4977975;28;102550;-84
2024/02/05 05:47:02;;;;;;;1.30;0.30;;;;;;;7.71;70.16;99490.97;4984259;28;102650;-84
2024/02/05 05:49:30;;;;;;;1.35;0.40;;;;;;;7.61;70.18;99491.75;4979581;28;104618;-89
2024/02/05 05:51:58;;;;;;;0.30;0.30;;;;;;;7.75;69.71;99484.47;4973884;28;104248;-80
2024/02/05 05:54:27;;;;;;;0.35;0.20;;;;;;;7.72;69.38;99490.84;4979684;28;103658;-77
2024/02/05 05:56:55;;;;;;;1.17;0.32;;;;;;;7.67;69.55;99487.75;4972971;28;102660;-78
2024/02/05 05:59:23;;;;;;;0.60;0.30;;;;;;;7.70;69.67;99487.47;4975648;28;103204;-81
2024/02/05 06:01:51;;;;;;;0.43;0.30;;;;;;;7.68;69.51;99481.53;4966007;28;103422;-79
2024/02/05 06:04:21;;;;;;;0.30;0.30;;;;;;;7.69;69.72;99480.56;4978425;28;103551;-79
2024/02/05 06:06:49;;;;;;;0.30;0.30;;;;;;;7.59;69.85;99484.94;4976682;28;102907;-79
2024/02/05 06:09:18;;;;;;;1.73;0.50;;;;;;;7.64;70.15;99477.47;4973443;28;104425;-84
2024/02/05 06:11:46;;;;;;;0.73;0.43;;;;;;;7.64;70.20;99473.03;4972735;28;103278;-77
2024/02/05 06:14:14;;;;;;;4.40;0.90;;;;;;;7.57;69.79;99479.81;4973420;28;103052;-78
2024/02/05 06:16:42;;;;;;;2.17;0.63;;;;;;;7.61;69.66;99483.84;4970306;28;103670;-76
2024/02/05 06:19:10;;;;;;;3.97;0.70;;;;;;;7.54;69.86;99471.31;4974374;28;103338;-78
2024/02/05 06:21:40;;;;;;;0.35;0.35;;;;;;;7.64;69.39;99475.66;4971302;28;103138;-80
2024/02/05 06:24:08;;;;;;;1.42;0.50;;;;;;;7.63;69.48;99468.72;4979469;28;102825;-79
2024/02/05 06:26:36;;;;;;;1.70;0.60;;;;;;;7.69;69.02;99470.03;4961227;28;102580;-80
2024/02/05 06:29:03;;;;;;;0.68;0.50;;;;;;;7.68;69.18;99484.16;4974138;28;104452;-81
2024/02/05 06:37:29;;;;;;;1.38;0.57;;;;;;;7.55;69.08;99473.00;3302986;26;105170;-67
2024/02/05 06:48:23;;;;;;;1.50;0.70;;;;;;;7.50;69.93;99476.00;4954175;28;103345;-66
2024/02/05 06:50:51;;;;;;;4.63;0.60;;;;;;;7.61;69.44;99485.63;4940338;28;102770;-67
2024/02/05 06:53:20;;;;;;;1.20;0.45;;;;;;;7.61;69.23;99475.09;4935930;28;104415;-67
2024/02/05 06:55:48;;;;;;;5.47;0.80;;;;;;;7.57;69.78;99486.84;4940804;28;103331;-66
2024/02/05 06:58:16;;;;;;;11.43;3.35;;;;;;;7.53;69.54;99485.44;4944048;28;103174;-66
2024/02/05 07:00:44;;;;;;;9.52;2.47;;;;;;;7.53;70.05;99483.63;4957790;28;103803;-66
2024/02/05 07:03:16;;;;;;;4.85;0.77;;;;;;;7.55;69.57;99491.44;4939482;28;104043;-66
2024/02/05 07:05:46;;;;;;;2.85;0.70;;;;;;;7.52;69.84;99489.91;4933457;28;103390;-66
2024/02/05 07:08:14;;;;;;;1.88;0.70;;;;;;;7.59;69.34;99493.69;4952917;28;102779;-67
2024/02/05 07:10:44;;;;;;;3.33;0.73;;;;;;;7.50;69.43;99491.00;4946568;28;104111;-66
2024/02/05 07:13:12;;;;;;;3.30;0.73;;;;;;;7.57;69.87;99492.13;4934926;28;103385;-67
2024/02/05 07:15:40;;;;;;;3.13;0.65;;;;;;;7.57;69.43;99492.13;4942433;28;103251;-67
2024/02/05 07:18:08;;;;;;;2.45;0.70;;;;;;;7.61;69.08;99493.53;4936880;28;103989;-69
2024/02/05 07:20:36;;;;;;;0.95;0.50;;;;;;;7.67;69.44;99492.22;4949306;28;103942;-69
2024/02/05 07:23:04;;;;;;;3.30;0.60;;;;;;;7.62;68.87;99497.84;4949699;28;103997;-69
2024/02/05 07:25:38;;;;;;;4.32;0.88;;;;;;;7.67;68.80;99503.56;4929648;28;104442;-71
2024/02/05 07:28:08;;;;;;;3.20;0.63;;;;;;;7.61;68.94;99510.22;4947178;28;103232;-71
2024/02/05 07:30:36;;;;;;;1.33;0.60;;;;;;;7.69;68.56;99495.53;4952533;28;103229;-71
2024/02/05 07:33:04;;;;;;;1.35;0.40;;;;;;;7.71;68.44;99499.72;4932578;28;104103;-71
2024/02/05 07:35:33;;;;;;;1.92;0.63;;;;;;;7.69;69.16;99506.06;4940646;28;103196;-68
2024/02/05 07:38:01;;;;;;;1.08;0.52;;;;;;;7.62;68.81;99511.88;4954210;28;102978;-68
2024/02/05 07:40:29;;;;;;;0.98;0.60;;;;;;;7.73;69.10;99503.06;4955938;28;102967;-69
2024/02/05 07:42:57;;;;;;;0.98;0.70;;;;;;;7.68;68.74;99507.88;4934934;28;104366;-70
2024/02/05 07:45:27;;;;;;;1.95;0.50;;;;;;;7.70;68.65;99508.59;4949083;28;103660;-68
2024/02/05 07:48:01;;;;;;;1.83;0.63;;;;;;;7.70;68.94;99508.59;4952443;28;102663;-68
2024/02/05 07:50:29;;;;;;;1.25;0.70;;;;;;;7.74;68.12;99509.16;4927003;28;103315;-68
2024/02/05 07:52:57;;;;;;;2.78;0.52;;;;;;;7.77;67.79;99507.09;4942651;28;105211;-68
2024/02/05 07:55:25;;;;;;;3.30;0.70;;;;;;;7.89;67.83;99522.88;4937461;28;103244;-70
2024/02/05 07:57:53;;;;;;;1.50;0.70;;;;;;;7.74;67.58;99515.28;4948853;28;103098;-68
2024/02/05 08:00:21;;;;;;;1.33;0.93;;;;;;;7.80;68.06;99522.66;4953184;28;102707;-69
2024/02/05 08:02:57;;;;;;;3.15;0.70;;;;;;;7.85;67.88;99521.44;4950705;28;103385;-68
2024/02/05 08:05:29;;;;;;;1.63;0.57;;;;;;;7.90;67.84;99521.88;4954908;28;103200;-69
2024/02/05 08:07:59;;;;;;;2.75;0.52;;;;;;;7.92;67.24;99518.16;4940517;28;102642;-65
2024/02/05 08:10:27;;;;;;;2.75;0.55;;;;;;;8.05;67.23;99517.94;4956642;28;103077;-65
2024/02/05 08:12:56;;;;;;;4.18;0.70;;;;;;;8.18;67.41;99522.16;4959487;28;103789;-65
2024/02/05 08:15:24;;;;;;;2.80;0.60;;;;;;;8.29;66.49;99514.13;4941956;28;104179;-65
2024/02/05 08:17:54;;;;;;;2.25;0.60;;;;;;;8.17;66.33;99515.22;4944760;28;102691;-65
2024/02/05 08:20:22;;;;;;;0.82;0.55;;;;;;;8.30;66.38;99511.41;4949045;28;102677;-65
2024/02/05 08:22:50;;;;;;;2.80;0.70;;;;;;;8.30;66.57;99511.41;4935497;28;104342;-65
2024/02/05 08:25:18;;;;;;;5.97;0.80;;;;;;;8.40;66.39;99515.88;4962765;28;103308;-70
2024/02/05 08:27:46;;;;;;;1.42;0.70;;;;;;;8.66;65.73;99505.69;4957521;28;103010;-69
2024/02/05 08:30:14;;;;;;;2.05;0.80;;;;;;;8.78;65.37;99507.22;4953383;28;103902;-69
2024/02/05 08:32:45;;;;;;;1.75;0.60;;;;;;;8.82;64.58;99509.56;4961409;28;104074;-70
2024/02/05 08:35:14;;;;;;;5.38;0.80;;;;;;;8.89;64.32;99500.16;4933726;28;104206;-69
2024/02/05 08:37:42;;;;;;;3.45;0.73;;;;;;;8.81;63.32;99498.19;4938476;28;103337;-70
2024/02/05 08:40:11;;;;;;;1.38;0.50;;;;;;;9.29;63.03;99499.19;4941327;28;102672;-70
2024/02/05 08:42:40;;;;;;;3.28;0.60;;;;;;;9.32;62.65;99496.25;4940518;28;104246;-70
2024/02/05 08:45:10;;;;;;;2.25;0.80;;;;;;;9.43;63.05;99498.75;4955099;28;103200;-70
2024/02/05 08:47:38;;;;;;;4.60;0.60;;;;;;;9.69;62.06;99495.50;4955744;28;102658;-69
2024/02/05 08:50:07;;;;;;;3.08;0.75;;;;;;;10.19;60.23;99493.53;4953482;28;102660;-69
2024/02/05 08:52:38;;;;;;;1.10;0.50;;;;;;;10.25;60.98;99498.25;4957731;28;103443;-65
2024/02/05 08:55:08;;;;;;;0.98;0.50;;;;;;;10.50;59.68;99493.28;4959229;28;104580;-65
2024/02/05 08:57:36;;;;;;;1.85;0.70;;;;;;;10.48;59.68;99493.44;4955787;28;103042;-65
2024/02/05 09:00:10;;;;;;;12.40;1.70;;;;;;;10.76;58.95;99496.03;4955920;28;103686;-65
2024/02/05 09:02:38;;;;;;;1.75;0.75;;;;;;;10.52;59.20;99499.25;4967225;28;103723;-66
2024/02/05 09:05:07;;;;;;;5.47;0.60;;;;;;;10.66;57.97;99493.44;4945154;28;105719;-65
2024/02/05 09:07:35;;;;;;;4.45;1.30;;;;;;;10.31;58.78;99481.78;4955123;28;102714;-65
2024/02/05 09:10:07;;;;;;;2.15;0.70;;;;;;;10.84;58.39;99493.47;4958364;28;102961;-65
2024/02/05 09:12:35;;;;;;;3.92;1.13;;;;;;;10.44;58.82;99492.88;4955449;28;104130;-65
2024/02/05 09:15:04;;;;;;;2.35;0.60;;;;;;;10.75;57.68;99492.53;4953978;28;103326;-65
2024/02/05 09:17:33;;;;;;;10.13;1.00;;;;;;;10.60;58.38;99491.41;4952708;28;102685;-65
2024/02/05 09:20:01;;;;;;;7.72;0.95;;;;;;;10.30;58.61;99488.06;4946301;28;102807;-65
2024/02/05 09:22:29;;;;;;;2.47;0.50;;;;;;;10.40;59.21;99482.72;4949076;28;103170;-65
2024/02/05 09:25:01;;;;;;;3.95;0.80;;;;;;;11.05;57.41;99489.69;4962530;28;103181;-65
2024/02/05 09:27:32;;;;;;;2.90;1.00;;;;;;;11.58;56.38;99490.59;4955870;28;102722;-65
2024/02/05 09:30:00;;;;;;;2.95;0.90;;;;;;;11.29;56.01;99491.72;4935317;28;102748;-65
2024/02/05 09:32:28;;;;;;;2.75;0.73;;;;;;;11.63;56.09;99488.31;4950247;28;103418;-65
2024/02/05 09:35:00;;;;;;;3.97;0.93;;;;;;;11.54;55.55;99491.91;4954978;28;103192;-66
2024/02/05 09:37:37;;;;;;;5.10;0.90;;;;;;;11.71;55.41;99485.75;4945319;28;102758;-65
2024/02/05 09:40:06;;;;;;;3.97;0.90;;;;;;;11.31;55.60;99488.94;4944002;28;104201;-66
2024/02/05 09:42:39;;;;;;;4.75;0.90;;;;;;;11.24;56.74;99494.00;4935277;28;104658;-65
2024/02/05 09:45:12;;;;;;;4.10;1.27;;;;;;;11.63;56.25;99493.63;4951612;28;103349;-65
2024/02/05 09:47:41;;;;;;;5.03;1.15;;;;;;;11.50;55.26;99494.06;4936271;28;103040;-65
2024/02/05 09:50:12;;;;;;;4.65;1.40;;;;;;;11.52;56.15;99488.59;4953825;28;102665;-64
2024/02/05 09:52:42;;;;;;;6.85;1.10;;;;;;;11.49;55.80;99488.88;4953726;28;103354;-65
2024/02/05 09:55:11;;;;;;;3.72;1.13;;;;;;;11.22;57.67;99490.69;4937136;28;104567;-65
2024/02/05 09:57:42;;;;;;;5.07;1.15;;;;;;;11.31;56.62;99488.94;4954958;28;102578;-66
2024/02/05 10:00:12;;;;;;;5.65;1.52;;;;;;;10.88;57.69;99491.38;4935656;28;102671;-66
2024/02/05 10:02:40;;;;;;;7.05;1.17;;;;;;;11.25;55.83;99487.72;4952487;28;103282;-70
2024/02/05 10:05:16;;;;;;;8.18;1.38;;;;;;;11.21;56.98;99489.00;4956615;28;103356;-71
2024/02/05 10:17:05;;;;;;;9.82;1.67;;;;;;;11.97;55.00;99490.22;4939666;28;103233;-70
2024/02/05 10:19:34;;;;;;;3.78;0.95;;;;;;;11.62;55.04;99486.69;4948976;28;104333;-65
2024/02/05 10:22:04;;;;;;;3.90;1.33;;;;;;;11.72;55.43;99484.72;4955415;28;102773;-65
2024/02/05 10:24:39;;;;;;;7.50;1.05;;;;;;;11.56;55.64;99482.00;4957227;28;102766;-65
2024/02/05 10:27:07;;;;;;;7.83;1.27;;;;;;;11.61;55.44;99485.00;4938501;28;104088;-66
2024/02/05 10:29:35;;;;;;;7.75;1.05;;;;;;;11.42;55.59;99475.41;4943451;28;103226;-66
2024/02/05 10:32:06;;;;;;;7.40;1.80;;;;;;;11.82;55.93;99476.69;4969967;28;102715;-66
2024/02/05 10:34:35;;;;;;;6.35;2.17;;;;;;;11.80;54.64;99469.84;4957731;28;103865;-66
2024/02/05 10:37:08;;;;;;;7.60;1.15;;;;;;;12.14;53.71;99464.56;4960222;28;103690;-66
2024/02/05 10:39:36;;;;;;;3.60;1.20;;;;;;;12.39;53.94;99468.19;4959662;28;103225;-66
2024/02/05 10:42:05;;;;;;;8.60;1.17;;;;;;;12.47;53.84;99461.22;4954470;28;102909;-67
2024/02/05 10:44:33;;;;;;;5.18;1.40;;;;;;;12.70;52.85;99451.63;4958945;28;103436;-67
2024/02/05 10:47:11;;;;;;;4.80;1.30;;;;;;;12.40;53.04;99443.25;4953818;28;104253;-67
2024/02/05 10:49:40;;;;;;;6.38;1.60;;;;;;;12.83;52.17;99437.06;4944724;28;103380;-66
2024/02/05 10:52:09;;;;;;;8.85;1.08;;;;;;;12.53;53.29;99436.66;4938277;28;102975;-66
2024/02/05 10:54:43;;;;;;;4.97;1.40;;;;;;;12.65;52.57;99424.72;4942022;28;103619;-66
2024/02/05 10:57:18;;;;;;;8.75;1.63;;;;;;;13.36;51.93;99414.47;4937628;28;104208;-66
2024/02/05 10:59:46;;;;;;;6.63;1.55;;;;;;;13.15;51.21;99427.41;4959223;28;102637;-67
2024/02/05 11:02:22;;;;;;;9.32;1.60;;;;;;;13.35;50.95;99422.56;4955702;28;102682;-66
2024/02/05 11:04:54;;;;;;;6.93;1.42;;;;;;;13.53;51.41;99425.06;4957364;28;104075;-67
2024/02/05 11:07:25;;;;;;;9.18;1.30;;;;;;;13.38;49.96;99409.78;4956588;28;103260;-71
2024/02/05 11:09:54;;;;;;;6.97;1.10;;;;;;;13.18;51.89;99411.13;4958832;28;103149;-72
2024/02/05 11:12:25;;;;;;;9.25;2.17;;;;;;;13.39;50.33;99406.13;4940073;28;102661;-67
2024/02/05 11:15:00;;;;;;;6.95;1.42;;;;;;;13.58;49.88;99396.13;4960471;28;103775;-66
2024/02/05 11:17:32;;;;;;;8.65;1.42;;;;;;;13.75;49.15;99391.56;4955707;28;104257;-67
2024/02/05 11:20:03;;;;;;;7.68;1.42;;;;;;;13.93;49.83;99380.69;4962288;28;103199;-67
2024/02/05 11:22:33;;;;;;;9.20;1.60;;;;;;;13.83;49.41;99374.75;4956480;28;103932;-67
2024/02/05 11:25:01;;;;;;;14.30;2.05;;;;;;;13.57;50.37;99381.16;4941460;28;103028;-66
2024/02/05 11:27:30;;;;;;;13.82;1.98;;;;;;;13.75;49.75;99384.44;4953226;28;103274;-66
2024/02/05 11:29:59;;;;;;;7.72;1.75;;;;;;;14.20;49.54;99370.56;4937614;28;103304;-67
2024/02/05 11:32:34;;;;;;;11.13;1.45;;;;;;;14.25;48.81;99358.41;4937351;28;102847;-67
2024/02/05 11:35:02;;;;;;;7.30;1.33;;;;;;;14.47;48.16;99360.44;4937344;28;102791;-67
2024/02/05 11:37:32;;;;;;;8.45;1.50;;;;;;;14.94;47.95;99362.09;4938550;28;103455;-67
2024/02/05 11:40:01;;;;;;;9.57;1.30;;;;;;;14.64;48.79;99364.66;4954256;28;103197;-67
2024/02/05 11:42:31;;;;;;;10.50;1.80;;;;;;;14.98;46.52;99363.38;4958189;28;102677;-67
2024/02/05 11:45:02;;;;;;;9.55;1.45;;;;;;;15.01;46.51;99357.69;4957558;28;102733;-67
2024/02/05 11:47:32;;;;;;;6.25;1.20;;;;;;;14.66;47.81;99349.31;4953967;28;103317;-67
2024/02/05 11:50:00;;;;;;;10.35;1.83;;;;;;;14.68;47.57;99347.28;4955453;28;103194;-66
2024/02/05 11:52:29;;;;;;;14.60;1.25;;;;;;;15.07;47.12;99338.28;4955979;28;102660;-66
2024/02/05 11:54:57;;;;;;;8.73;1.50;;;;;;;15.35;46.18;99334.19;4957313;28;102728;-66
2024/02/05 12:06:17;;;;;;;10.57;1.40;;;;;;;14.97;45.32;99327.03;4938948;28;102818;-66
2024/02/05 12:08:47;;;;;;;11.02;1.60;;;;;;;15.08;45.74;99323.13;4935370;28;104066;-66
2024/02/05 12:11:15;;;;;;;8.15;1.77;;;;;;;15.18;44.97;99314.84;4951628;28;102870;-66
2024/02/05 12:13:44;;;;;;;10.35;1.95;;;;;;;15.64;44.52;99306.66;4948602;28;103375;-67